createdAt,value
2019-03-09T00:00:31.962Z,5.50
2019-03-09T00:01:31.974Z,7.00
2019-03-09T00:02:31.991Z,6.90
2019-03-09T00:03:32.000Z,7.60
2019-03-09T00:04:32.015Z,8.20
2019-03-09T00:05:32.031Z,7.00
2019-03-09T00:06:32.054Z,6.00
2019-03-09T00:07:32.061Z,7.10
2019-03-09T00:08:32.071Z,8.10
2019-03-09T00:09:32.086Z,6.40
2019-03-09T00:10:32.101Z,6.90
2019-03-09T00:11:32.114Z,5.70
2019-03-09T00:12:32.129Z,8.90
2019-03-09T00:13:32.142Z,8.50
2019-03-09T00:14:32.154Z,7.00
2019-03-09T00:15:32.170Z,8.10
2019-03-09T00:16:32.180Z,8.70
2019-03-09T00:17:32.197Z,6.10
2019-03-09T00:18:32.211Z,8.70
2019-03-09T00:19:32.225Z,7.40
2019-03-09T00:20:32.236Z,6.90
2019-03-09T00:21:32.256Z,5.80
2019-03-09T00:22:32.272Z,7.60
2019-03-09T00:23:32.279Z,8.30
2019-03-09T00:24:32.294Z,8.10
2019-03-09T00:25:32.307Z,7.70
2019-03-09T00:26:32.319Z,6.10
2019-03-09T00:27:32.335Z,8.10
2019-03-09T00:28:32.349Z,7.50
2019-03-09T00:29:32.365Z,7.10
2019-03-09T00:30:32.376Z,6.90
2019-03-09T00:31:32.390Z,6.60
2019-03-09T00:32:32.405Z,7.00
2019-03-09T00:33:32.419Z,10.10
2019-03-09T00:34:32.432Z,9.40
2019-03-09T00:35:32.449Z,10.00
2019-03-09T00:36:32.460Z,7.60
2019-03-09T00:37:32.478Z,7.90
2019-03-09T00:38:32.489Z,6.40
2019-03-09T00:39:32.503Z,9.50
2019-03-09T00:40:32.517Z,7.50
2019-03-09T00:41:32.540Z,6.00
2019-03-09T00:42:32.544Z,7.10
2019-03-09T00:43:32.558Z,11.30
2019-03-09T00:44:32.572Z,9.10
2019-03-09T00:45:32.585Z,6.30
2019-03-09T00:46:32.601Z,7.30
2019-03-09T00:47:32.615Z,7.30
2019-03-09T00:48:32.631Z,9.40
2019-03-09T00:49:32.642Z,9.80
2019-03-09T00:50:32.655Z,7.80
2019-03-09T00:51:32.671Z,5.80
2019-03-09T00:52:32.684Z,6.20
2019-03-09T00:53:32.704Z,10.30
2019-03-09T00:54:32.715Z,8.80
2019-03-09T00:55:32.728Z,10.40
2019-03-09T00:56:32.739Z,7.70
2019-03-09T00:57:32.754Z,7.60
2019-03-09T00:58:32.768Z,5.30
2019-03-09T00:59:32.787Z,9.30
2019-03-09T01:00:32.797Z,9.70
2019-03-09T01:01:32.811Z,8.10
2019-03-09T01:02:32.824Z,6.60
2019-03-09T01:03:32.839Z,9.70
2019-03-09T01:04:32.851Z,9.70
2019-03-09T01:05:32.865Z,6.00
2019-03-09T01:06:32.880Z,6.80
2019-03-09T01:07:32.895Z,5.80
2019-03-09T01:08:32.908Z,9.80
2019-03-09T01:09:32.924Z,9.40
2019-03-09T01:10:32.938Z,7.50
2019-03-09T01:11:32.950Z,8.50
2019-03-09T01:12:32.965Z,9.00
2019-03-09T01:13:32.981Z,8.20
2019-03-09T01:14:32.992Z,8.20
2019-03-09T01:15:33.010Z,8.30
2019-03-09T01:16:33.021Z,7.90
2019-03-09T01:17:33.034Z,10.60
2019-03-09T01:18:33.126Z,9.30
2019-03-09T01:19:33.154Z,7.10
2019-03-09T01:20:33.133Z,9.70
2019-03-09T01:21:33.128Z,8.60
2019-03-09T01:22:33.133Z,8.10
2019-03-09T01:23:33.199Z,7.40
2019-03-09T01:24:33.188Z,9.80
2019-03-09T01:25:33.191Z,7.90
2019-03-09T01:26:33.192Z,6.80
2019-03-09T01:27:33.185Z,11.30
2019-03-09T01:28:33.193Z,10.70
2019-03-09T01:29:33.204Z,8.00
2019-03-09T01:30:33.226Z,7.80
2019-03-09T01:31:33.233Z,9.70
2019-03-09T01:32:33.251Z,9.50
2019-03-09T01:33:33.263Z,9.50
2019-03-09T01:34:33.278Z,6.70
2019-03-09T01:35:33.294Z,9.40
2019-03-09T01:36:33.305Z,6.60
2019-03-09T01:37:33.321Z,9.20
2019-03-09T01:38:33.334Z,7.70
2019-03-09T01:39:33.349Z,8.50
2019-03-09T01:40:33.367Z,9.90
2019-03-09T01:41:33.376Z,7.10
2019-03-09T01:42:33.392Z,8.80
2019-03-09T01:43:33.406Z,8.00
2019-03-09T01:44:33.421Z,7.00
2019-03-09T01:45:33.437Z,8.20
2019-03-09T01:46:33.449Z,7.10
2019-03-09T01:47:33.466Z,13.10
2019-03-09T01:48:33.475Z,8.70
2019-03-09T01:49:33.497Z,8.60
2019-03-09T01:50:33.505Z,8.40
2019-03-09T01:51:33.520Z,8.50
2019-03-09T01:52:33.534Z,8.20
2019-03-09T01:53:36.689Z,6.70
2019-03-09T01:54:33.562Z,7.90
2019-03-09T01:55:33.573Z,10.70
2019-03-09T01:56:33.589Z,9.80
2019-03-09T01:57:33.604Z,8.60
2019-03-09T01:58:33.619Z,8.10
2019-03-09T01:59:33.635Z,8.20
2019-03-09T02:00:33.648Z,8.50
2019-03-09T02:01:33.661Z,9.40
2019-03-09T02:02:33.674Z,9.10
2019-03-09T02:03:33.693Z,10.00
2019-03-09T02:04:33.704Z,8.00
2019-03-09T02:05:33.719Z,8.70
2019-03-09T02:06:33.734Z,6.80
2019-03-09T02:07:33.745Z,9.50
2019-03-09T02:08:33.759Z,9.70
2019-03-09T02:09:33.773Z,8.10
2019-03-09T02:10:33.787Z,9.40
2019-03-09T02:11:33.799Z,9.30
2019-03-09T02:12:33.814Z,7.60
2019-03-09T02:13:33.831Z,13.00
2019-03-09T02:14:33.844Z,9.90
2019-03-09T02:15:33.858Z,7.30
2019-03-09T02:16:33.874Z,7.30
2019-03-09T02:17:33.890Z,11.00
2019-03-09T02:18:33.899Z,8.30
2019-03-09T02:19:33.914Z,8.20
2019-03-09T02:20:33.931Z,9.20
2019-03-09T02:21:33.942Z,7.20
2019-03-09T02:22:33.956Z,7.70
2019-03-09T02:23:33.980Z,10.60
2019-03-09T02:24:33.984Z,8.60
2019-03-09T02:25:33.997Z,7.00
2019-03-09T02:26:34.011Z,7.80
2019-03-09T02:27:34.029Z,7.40
2019-03-09T02:28:34.040Z,8.50
2019-03-09T02:29:34.058Z,8.00
2019-03-09T02:30:34.067Z,8.00
2019-03-09T02:31:34.085Z,10.10
2019-03-09T02:32:34.100Z,8.70
2019-03-09T02:33:34.112Z,8.90
2019-03-09T02:34:34.126Z,9.20
2019-03-09T02:35:34.140Z,6.80
2019-03-09T02:36:34.157Z,10.10
2019-03-09T02:37:34.172Z,7.80
2019-03-09T02:38:34.185Z,7.00
2019-03-09T02:39:34.197Z,8.80
2019-03-09T02:40:34.209Z,9.70
2019-03-09T02:41:34.227Z,8.60
2019-03-09T02:42:34.242Z,10.90
2019-03-09T02:43:34.256Z,8.30
2019-03-09T02:44:34.271Z,8.10
2019-03-09T02:45:34.293Z,9.60
2019-03-09T02:46:34.318Z,8.70
2019-03-09T02:47:34.310Z,8.30
2019-03-09T02:48:34.330Z,8.60
2019-03-09T02:49:34.339Z,7.30
2019-03-09T02:50:34.356Z,8.80
2019-03-09T02:51:34.385Z,8.50
2019-03-09T02:52:34.381Z,8.20
2019-03-09T02:53:34.429Z,8.40
2019-03-09T02:54:34.410Z,8.40
2019-03-09T02:55:34.426Z,10.70
2019-03-09T02:56:34.446Z,7.90
2019-03-09T02:57:34.457Z,6.90
2019-03-09T02:58:34.471Z,8.80
2019-03-09T02:59:34.483Z,8.50
2019-03-09T03:00:34.504Z,7.90
2019-03-09T03:01:34.516Z,7.60
2019-03-09T03:02:34.530Z,7.70
2019-03-09T03:03:34.541Z,9.20
2019-03-09T03:04:34.558Z,7.30
2019-03-09T03:05:34.570Z,8.40
2019-03-09T03:06:34.583Z,8.10
2019-03-09T03:07:34.598Z,9.80
2019-03-09T03:08:34.615Z,8.40
2019-03-09T03:09:34.631Z,7.40
2019-03-09T03:10:34.643Z,8.60
2019-03-09T03:11:37.166Z,6.60
2019-03-09T03:12:34.671Z,7.70
2019-03-09T03:13:34.686Z,7.10
2019-03-09T03:14:34.699Z,8.30
2019-03-09T03:15:34.804Z,10.00
2019-03-09T03:16:34.729Z,8.40
2019-03-09T03:17:34.750Z,8.20
2019-03-09T03:18:34.757Z,8.70
2019-03-09T03:19:34.776Z,11.20
2019-03-09T03:20:34.807Z,7.50
2019-03-09T03:21:35.052Z,8.20
2019-03-09T03:22:34.816Z,6.90
2019-03-09T03:23:34.831Z,9.70
2019-03-09T03:24:34.849Z,7.10
2019-03-09T03:25:34.861Z,7.70
2019-03-09T03:26:34.882Z,9.60
2019-03-09T03:27:34.916Z,8.00
2019-03-09T03:28:34.971Z,8.70
2019-03-09T03:29:34.979Z,8.30
2019-03-09T03:30:34.974Z,8.90
2019-03-09T03:31:35.042Z,7.80
2019-03-09T03:32:35.044Z,7.60
2019-03-09T03:33:35.038Z,5.90
2019-03-09T03:34:35.049Z,7.70
2019-03-09T03:35:35.035Z,9.30
2019-03-09T03:36:35.030Z,6.80
2019-03-09T03:37:35.039Z,7.40
2019-03-09T03:38:35.068Z,7.40
2019-03-09T03:39:35.065Z,8.10
2019-03-09T03:40:35.085Z,7.40
2019-03-09T03:41:35.096Z,6.60
2019-03-09T03:42:35.110Z,6.30
2019-03-09T03:43:35.123Z,7.00
2019-03-09T03:44:35.137Z,11.20
2019-03-09T03:45:35.165Z,8.60
2019-03-09T03:46:35.164Z,6.90
2019-03-09T03:47:35.180Z,7.50
2019-03-09T03:48:35.200Z,7.50
2019-03-09T03:49:35.211Z,9.30
2019-03-09T03:50:35.222Z,8.10
2019-03-09T03:51:35.540Z,9.40
2019-03-09T03:52:35.253Z,8.80
2019-03-09T03:53:35.270Z,8.50
2019-03-09T03:54:35.283Z,6.90
2019-03-09T03:55:35.298Z,7.20
2019-03-09T03:56:35.311Z,7.50
2019-03-09T03:57:35.327Z,10.00
2019-03-09T03:58:35.347Z,9.10
2019-03-09T03:59:35.356Z,6.10
2019-03-09T04:00:35.374Z,7.70
2019-03-09T04:01:35.385Z,6.60
2019-03-09T04:02:35.480Z,8.10
2019-03-09T04:03:35.415Z,9.60
2019-03-09T04:04:35.432Z,9.30
2019-03-09T04:05:35.442Z,7.40
2019-03-09T04:06:35.461Z,9.00
2019-03-09T04:07:35.476Z,9.00
2019-03-09T04:08:35.493Z,7.80
2019-03-09T04:09:35.503Z,10.40
2019-03-09T04:10:35.515Z,8.80
2019-03-09T04:11:35.531Z,9.70
2019-03-09T04:12:35.578Z,7.80
2019-03-09T04:13:35.562Z,8.40
2019-03-09T04:14:35.576Z,6.20
2019-03-09T04:15:35.589Z,6.90
2019-03-09T04:16:35.609Z,10.70
2019-03-09T04:17:35.621Z,7.60
2019-03-09T04:18:35.736Z,6.80
2019-03-09T04:19:35.651Z,7.10
2019-03-09T04:20:35.722Z,7.80
2019-03-09T04:21:35.677Z,8.30
2019-03-09T04:22:35.696Z,9.60
2019-03-09T04:23:35.711Z,8.90
2019-03-09T04:24:35.722Z,6.60
2019-03-09T04:25:35.739Z,5.90
2019-03-09T04:26:36.060Z,10.60
2019-03-09T04:27:35.766Z,8.60
2019-03-09T04:28:35.801Z,6.50
2019-03-09T04:29:35.794Z,11.30
2019-03-09T04:30:35.809Z,7.80
2019-03-09T04:31:35.824Z,9.90
2019-03-09T04:32:35.842Z,9.00
2019-03-09T04:33:35.852Z,7.50
2019-03-09T04:34:35.867Z,7.40
2019-03-09T04:35:35.885Z,9.50
2019-03-09T04:36:35.915Z,6.50
2019-03-09T04:37:35.910Z,6.80
2019-03-09T04:38:35.925Z,7.10
2019-03-09T04:39:35.941Z,6.50
2019-03-09T04:40:35.954Z,6.80
2019-03-09T04:41:35.970Z,7.80
2019-03-09T04:42:35.982Z,8.10
2019-03-09T04:43:35.997Z,8.20
2019-03-09T04:44:36.012Z,6.40
2019-03-09T04:45:36.027Z,6.80
2019-03-09T04:46:36.292Z,8.20
2019-03-09T04:47:36.055Z,8.20
2019-03-09T04:48:36.075Z,9.50
2019-03-09T04:49:36.085Z,7.60
2019-03-09T04:50:36.100Z,9.90
2019-03-09T04:51:36.415Z,6.80
2019-03-09T04:52:36.130Z,7.60
2019-03-09T04:53:36.142Z,6.90
2019-03-09T04:54:36.158Z,8.70
2019-03-09T04:55:36.170Z,9.20
2019-03-09T04:56:36.188Z,6.10
2019-03-09T04:57:36.201Z,9.70
2019-03-09T04:58:36.217Z,7.70
2019-03-09T04:59:36.228Z,7.20
2019-03-09T05:00:36.244Z,9.80
2019-03-09T05:01:36.260Z,6.80
2019-03-09T05:02:36.274Z,10.00
2019-03-09T05:03:36.292Z,7.60
2019-03-09T05:04:36.305Z,7.20
2019-03-09T05:05:36.315Z,7.90
2019-03-09T05:06:36.330Z,6.60
2019-03-09T05:07:36.345Z,10.50
2019-03-09T05:08:36.361Z,10.70
2019-03-09T05:09:36.374Z,8.80
2019-03-09T05:10:36.388Z,7.80
2019-03-09T05:11:36.655Z,8.90
2019-03-09T05:12:36.417Z,12.50
2019-03-09T05:13:36.432Z,7.00
2019-03-09T05:14:36.447Z,8.00
2019-03-09T05:15:36.459Z,9.40
2019-03-09T05:16:36.733Z,10.60
2019-03-09T05:17:36.490Z,10.00
2019-03-09T05:18:36.505Z,9.20
2019-03-09T05:19:36.519Z,9.50
2019-03-09T05:20:36.535Z,7.40
2019-03-09T05:21:36.546Z,9.80
2019-03-09T05:22:36.560Z,7.30
2019-03-09T05:23:36.577Z,10.80
2019-03-09T05:24:36.590Z,11.80
2019-03-09T05:25:36.603Z,9.20
2019-03-09T05:26:36.925Z,11.30
2019-03-09T05:27:36.633Z,8.40
2019-03-09T05:28:36.647Z,8.90
2019-03-09T05:29:36.661Z,8.70
2019-03-09T05:30:36.675Z,9.50
2019-03-09T05:31:36.689Z,8.80
2019-03-09T05:32:36.705Z,11.10
2019-03-09T05:33:36.726Z,11.20
2019-03-09T05:34:36.749Z,8.70
2019-03-09T05:35:36.813Z,12.90
2019-03-09T05:36:36.813Z,7.30
2019-03-09T05:37:43.119Z,10.30
2019-03-09T05:38:36.811Z,8.70
2019-03-09T05:39:36.874Z,8.00
2019-03-09T05:40:36.877Z,10.10
2019-03-09T05:41:36.868Z,8.20
2019-03-09T05:42:36.877Z,7.20
2019-03-09T05:43:36.880Z,8.70
2019-03-09T05:44:36.887Z,8.90
2019-03-09T05:45:36.891Z,8.90
2019-03-09T05:46:36.901Z,8.10
2019-03-09T05:47:36.916Z,10.10
2019-03-09T05:48:36.929Z,10.70
2019-03-09T05:49:36.945Z,7.80
2019-03-09T05:50:36.969Z,8.70
2019-03-09T05:51:36.971Z,7.50
2019-03-09T05:52:36.985Z,9.20
2019-03-09T05:53:37.006Z,9.40
2019-03-09T05:54:37.013Z,8.40
2019-03-09T05:55:37.028Z,9.50
2019-03-09T05:56:37.043Z,10.50
2019-03-09T05:57:37.055Z,9.60
2019-03-09T05:58:37.070Z,10.80
2019-03-09T05:59:37.084Z,9.60
2019-03-09T06:00:37.097Z,11.00
2019-03-09T06:01:37.114Z,8.10
2019-03-09T06:02:37.127Z,10.00
2019-03-09T06:03:37.139Z,10.20
2019-03-09T06:04:37.155Z,11.70
2019-03-09T06:05:37.173Z,14.90
2019-03-09T06:06:37.180Z,9.60
2019-03-09T06:07:37.195Z,14.30
2019-03-09T06:08:37.210Z,12.10
2019-03-09T06:09:37.224Z,12.70
2019-03-09T06:10:37.236Z,9.40
2019-03-09T06:11:37.252Z,12.90
2019-03-09T06:12:37.265Z,11.80
2019-03-09T06:13:37.285Z,9.50
2019-03-09T06:14:37.293Z,12.20
2019-03-09T06:15:37.307Z,9.90
2019-03-09T06:16:37.321Z,11.80
2019-03-09T06:17:37.335Z,10.60
2019-03-09T06:18:37.347Z,12.00
2019-03-09T06:19:37.361Z,10.10
2019-03-09T06:20:37.376Z,15.60
2019-03-09T06:21:37.390Z,10.00
2019-03-09T06:22:37.401Z,10.50
2019-03-09T06:23:37.416Z,9.30
2019-03-09T06:24:37.431Z,10.80
2019-03-09T06:25:38.608Z,12.50
2019-03-09T06:26:37.458Z,10.90
2019-03-09T06:27:37.472Z,9.70
2019-03-09T06:28:37.483Z,12.80
2019-03-09T06:29:37.500Z,11.30
2019-03-09T06:30:37.512Z,10.60
2019-03-09T06:31:37.527Z,9.40
2019-03-09T06:32:37.540Z,10.60
2019-03-09T06:33:37.554Z,10.30
2019-03-09T06:34:37.569Z,9.10
2019-03-09T06:35:37.581Z,11.10
2019-03-09T06:36:37.595Z,9.40
2019-03-09T06:37:37.611Z,13.90
2019-03-09T06:38:37.623Z,11.30
2019-03-09T06:39:37.636Z,12.90
2019-03-09T06:40:37.666Z,12.40
2019-03-09T06:41:37.667Z,11.20
2019-03-09T06:42:37.678Z,11.50
2019-03-09T06:43:37.691Z,11.10
2019-03-09T06:44:37.705Z,13.40
2019-03-09T06:45:37.717Z,11.20
2019-03-09T06:46:37.733Z,12.00
2019-03-09T06:47:37.746Z,10.30
2019-03-09T06:48:37.759Z,10.60
2019-03-09T06:49:37.773Z,11.20
2019-03-09T06:50:37.786Z,11.30
2019-03-09T06:51:37.804Z,12.40
2019-03-09T06:52:37.813Z,11.70
2019-03-09T06:53:37.828Z,11.60
2019-03-09T06:54:37.841Z,11.40
2019-03-09T06:55:37.856Z,9.60
2019-03-09T06:56:37.868Z,12.00
2019-03-09T06:57:37.880Z,11.40
2019-03-09T06:58:37.894Z,11.40
2019-03-09T06:59:37.908Z,6.50
2019-03-09T07:00:37.923Z,10.30
2019-03-09T07:01:37.935Z,9.30
2019-03-09T07:02:37.950Z,10.10
2019-03-09T07:03:37.963Z,8.50
2019-03-09T07:04:37.978Z,11.00
2019-03-09T07:05:37.990Z,9.80
2019-03-09T07:06:38.006Z,9.50
2019-03-09T07:07:38.021Z,8.60
2019-03-09T07:08:39.437Z,8.90
2019-03-09T07:09:38.046Z,11.20
2019-03-09T07:10:38.060Z,7.10
2019-03-09T07:11:38.072Z,12.20
2019-03-09T07:12:38.087Z,6.50
2019-03-09T07:13:38.105Z,7.40
2019-03-09T07:14:38.115Z,10.00
2019-03-09T07:15:38.128Z,11.80
2019-03-09T07:16:38.143Z,10.60
2019-03-09T07:17:38.156Z,9.60
2019-03-09T07:18:38.170Z,10.40
2019-03-09T07:19:38.183Z,8.50
2019-03-09T07:20:38.197Z,12.10
2019-03-09T07:21:38.210Z,9.00
2019-03-09T07:22:38.225Z,8.40
2019-03-09T07:23:38.242Z,8.90
2019-03-09T07:24:38.252Z,5.90
2019-03-09T07:25:38.266Z,8.60
2019-03-09T07:26:38.280Z,7.80
2019-03-09T07:27:38.294Z,8.60
2019-03-09T07:28:38.308Z,8.50
2019-03-09T07:29:38.324Z,5.80
2019-03-09T07:30:38.344Z,9.40
2019-03-09T07:31:38.350Z,10.20
2019-03-09T07:32:38.367Z,9.00
2019-03-09T07:33:38.382Z,5.80
2019-03-09T07:34:38.392Z,8.60
2019-03-09T07:35:38.408Z,7.20
2019-03-09T07:36:38.422Z,8.00
2019-03-09T07:37:38.439Z,8.40
2019-03-09T07:38:38.451Z,9.10
2019-03-09T07:39:38.465Z,6.10
2019-03-09T07:40:38.480Z,6.70
2019-03-09T07:41:38.496Z,8.30
2019-03-09T07:42:38.507Z,7.20
2019-03-09T07:43:38.521Z,7.60
2019-03-09T07:44:38.542Z,7.50
2019-03-09T07:45:38.551Z,7.30
2019-03-09T07:46:38.585Z,6.40
2019-03-09T07:47:38.660Z,6.70
2019-03-09T07:48:38.651Z,7.60
2019-03-09T07:49:38.649Z,7.90
2019-03-09T07:50:38.662Z,5.90
2019-03-09T07:51:38.720Z,5.40
2019-03-09T07:52:38.723Z,9.40
2019-03-09T07:53:38.716Z,6.60
2019-03-09T07:54:38.710Z,5.00
2019-03-09T07:55:38.708Z,5.60
2019-03-09T07:56:38.723Z,7.20
2019-03-09T07:57:38.721Z,5.60
2019-03-09T07:58:38.736Z,5.30
2019-03-09T07:59:38.751Z,3.20
2019-03-09T08:00:38.765Z,3.50
2019-03-09T08:01:38.780Z,4.50
2019-03-09T08:02:38.795Z,4.50
2019-03-09T08:03:38.809Z,4.60
2019-03-09T08:04:38.824Z,5.20
2019-03-09T08:05:38.842Z,4.90
2019-03-09T08:06:38.864Z,4.20
2019-03-09T08:07:38.869Z,5.30
2019-03-09T08:08:38.885Z,6.00
2019-03-09T08:09:38.907Z,5.00
2019-03-09T08:10:38.910Z,3.90
2019-03-09T08:11:38.925Z,5.00
2019-03-09T08:12:38.941Z,4.40
2019-03-09T08:13:38.959Z,5.10
2019-03-09T08:14:38.971Z,2.30
2019-03-09T08:15:38.984Z,3.50
2019-03-09T08:16:39.001Z,2.90
2019-03-09T08:17:39.014Z,3.50
2019-03-09T08:18:39.031Z,2.40
2019-03-09T08:19:39.051Z,2.70
2019-03-09T08:20:39.064Z,2.40
2019-03-09T08:21:39.075Z,3.20
2019-03-09T08:22:39.092Z,2.60
2019-03-09T08:23:39.105Z,3.60
2019-03-09T08:24:39.121Z,3.10
2019-03-09T08:25:39.135Z,2.80
2019-03-09T08:26:39.150Z,2.50
2019-03-09T08:27:39.166Z,2.50
2019-03-09T08:28:39.190Z,5.00
2019-03-09T08:29:39.199Z,3.30
2019-03-09T08:30:39.216Z,6.10
2019-03-09T08:31:39.245Z,2.80
2019-03-09T08:32:39.240Z,2.80
2019-03-09T08:33:39.255Z,3.60
2019-03-09T08:34:39.271Z,2.40
2019-03-09T08:35:39.286Z,2.50
2019-03-09T08:36:39.300Z,3.20
2019-03-09T08:37:39.345Z,3.10
2019-03-09T08:38:39.331Z,2.50
2019-03-09T08:39:39.388Z,3.60
2019-03-09T08:40:39.380Z,3.40
2019-03-09T08:41:39.377Z,3.20
2019-03-09T08:42:39.403Z,3.50
2019-03-09T08:43:39.411Z,4.10
2019-03-09T08:44:39.428Z,4.30
2019-03-09T08:45:39.434Z,2.90
2019-03-09T08:46:39.452Z,3.40
2019-03-09T08:47:39.465Z,2.90
2019-03-09T08:48:39.483Z,2.90
2019-03-09T08:49:39.504Z,3.20
2019-03-09T08:50:39.513Z,2.60
2019-03-09T08:51:39.542Z,3.90
2019-03-09T08:52:39.541Z,2.60
2019-03-09T08:53:39.557Z,2.70
2019-03-09T08:54:39.572Z,5.40
2019-03-09T08:55:39.589Z,3.40
2019-03-09T08:56:39.606Z,3.90
2019-03-09T08:57:39.616Z,4.20
2019-03-09T08:58:39.640Z,5.80
2019-03-09T08:59:39.646Z,2.90
2019-03-09T09:00:39.663Z,2.70
2019-03-09T09:01:39.685Z,3.70
2019-03-09T09:02:39.692Z,2.80
2019-03-09T09:03:39.709Z,3.70
2019-03-09T09:04:39.719Z,3.40
2019-03-09T09:05:39.911Z,4.90
2019-03-09T09:06:39.750Z,3.40
2019-03-09T09:07:39.765Z,3.50
2019-03-09T09:08:39.784Z,3.70
2019-03-09T09:09:39.799Z,3.50
2019-03-09T09:10:39.811Z,2.80
2019-03-09T09:11:39.824Z,2.80
2019-03-09T09:12:39.841Z,3.50
2019-03-09T09:13:39.855Z,3.70
2019-03-09T09:14:39.870Z,2.30
2019-03-09T09:15:39.884Z,3.80
2019-03-09T09:16:39.907Z,4.20
2019-03-09T09:17:39.914Z,2.20
2019-03-09T09:18:39.931Z,3.70
2019-03-09T09:19:39.944Z,2.80
2019-03-09T09:20:39.961Z,3.50
2019-03-09T09:21:39.974Z,4.90
2019-03-09T09:22:39.990Z,4.30
2019-03-09T09:23:40.004Z,3.10
2019-03-09T09:24:40.020Z,2.80
2019-03-09T09:25:40.035Z,3.10
2019-03-09T09:26:40.048Z,2.40
2019-03-09T09:27:40.063Z,2.80
2019-03-09T09:28:40.079Z,2.00
2019-03-09T09:29:40.094Z,2.50
2019-03-09T09:30:40.108Z,5.00
2019-03-09T09:31:40.125Z,3.70
2019-03-09T09:32:40.141Z,1.70
2019-03-09T09:33:40.159Z,3.10
2019-03-09T09:34:40.170Z,4.60
2019-03-09T09:35:40.188Z,2.20
2019-03-09T09:36:40.203Z,3.00
2019-03-09T09:37:40.219Z,3.00
2019-03-09T09:38:40.234Z,3.40
2019-03-09T09:39:40.252Z,4.10
2019-03-09T09:40:40.266Z,1.80
2019-03-09T09:41:40.284Z,3.30
2019-03-09T09:42:40.303Z,3.70
2019-03-09T09:43:40.316Z,2.40
2019-03-09T09:44:40.333Z,2.00
2019-03-09T09:45:40.361Z,2.60
2019-03-09T09:46:40.375Z,3.70
2019-03-09T09:47:42.446Z,3.60
2019-03-09T09:48:40.398Z,4.20
2019-03-09T09:49:40.432Z,6.90
2019-03-09T09:50:40.510Z,3.60
2019-03-09T09:51:40.504Z,4.20
2019-03-09T09:52:40.516Z,4.10
2019-03-09T09:53:40.512Z,6.70
2019-03-09T09:54:40.561Z,3.20
2019-03-09T09:55:40.568Z,2.50
2019-03-09T09:56:40.569Z,3.10
2019-03-09T09:57:40.566Z,1.80
2019-03-09T09:58:40.567Z,4.40
2019-03-09T09:59:40.580Z,3.90
2019-03-09T10:00:40.598Z,3.70
2019-03-09T10:01:40.615Z,3.40
2019-03-09T10:02:40.632Z,3.00
2019-03-09T10:03:40.647Z,4.40
2019-03-09T10:04:40.664Z,2.70
2019-03-09T10:05:40.681Z,3.00
2019-03-09T10:06:40.696Z,3.90
2019-03-09T10:07:40.713Z,3.40
2019-03-09T10:08:40.730Z,2.90
2019-03-09T10:09:40.748Z,3.70
2019-03-09T10:10:40.765Z,4.10
2019-03-09T10:11:40.781Z,3.90
2019-03-09T10:12:40.800Z,2.50
2019-03-09T10:13:40.815Z,4.10
2019-03-09T10:14:40.835Z,6.20
2019-03-09T10:15:40.851Z,6.70
2019-03-09T10:16:40.869Z,8.50
2019-03-09T10:17:40.885Z,2.90
2019-03-09T10:18:40.902Z,3.40
2019-03-09T10:19:40.919Z,4.20
2019-03-09T10:20:40.936Z,6.00
2019-03-09T10:21:40.954Z,4.20
2019-03-09T10:22:40.971Z,5.10
2019-03-09T10:23:40.986Z,5.80
2019-03-09T10:24:41.005Z,4.30
2019-03-09T10:25:41.024Z,4.80
2019-03-09T10:26:41.043Z,4.40
2019-03-09T10:27:41.062Z,5.50
2019-03-09T10:28:41.077Z,3.00
2019-03-09T10:29:41.096Z,3.90
2019-03-09T10:30:41.112Z,3.00
2019-03-09T10:31:41.130Z,5.80
2019-03-09T10:32:41.147Z,5.00
2019-03-09T10:33:41.166Z,3.80
2019-03-09T10:34:41.184Z,4.10
2019-03-09T10:35:41.205Z,4.80
2019-03-09T10:36:41.222Z,4.20
2019-03-09T10:37:41.240Z,2.60
2019-03-09T10:38:41.258Z,4.80
2019-03-09T10:39:41.296Z,2.70
2019-03-09T10:40:41.295Z,6.30
2019-03-09T10:41:41.314Z,2.40
2019-03-09T10:42:41.423Z,5.00
2019-03-09T10:43:41.350Z,2.20
2019-03-09T10:44:41.388Z,2.60
2019-03-09T10:45:41.387Z,4.50
2019-03-09T10:46:41.408Z,3.80
2019-03-09T10:47:41.426Z,2.50
2019-03-09T10:48:41.445Z,4.30
2019-03-09T10:49:41.463Z,4.10
2019-03-09T10:50:41.485Z,3.70
2019-03-09T10:51:41.503Z,4.70
2019-03-09T10:52:41.522Z,2.30
2019-03-09T10:53:41.543Z,4.50
2019-03-09T10:54:41.559Z,4.60
2019-03-09T10:55:42.670Z,2.50
2019-03-09T10:56:41.646Z,2.60
2019-03-09T10:57:41.618Z,5.20
2019-03-09T10:58:41.633Z,4.10
2019-03-09T10:59:41.655Z,5.00
2019-03-09T11:00:41.676Z,4.30
2019-03-09T11:01:41.693Z,4.60
2019-03-09T11:02:41.710Z,5.40
2019-03-09T11:03:41.729Z,5.80
2019-03-09T11:04:41.747Z,4.20
2019-03-09T11:05:41.770Z,4.80
2019-03-09T11:06:41.801Z,7.00
2019-03-09T11:07:41.803Z,3.50
2019-03-09T11:08:41.821Z,6.40
2019-03-09T11:09:44.086Z,6.80
2019-03-09T11:10:41.859Z,3.20
2019-03-09T11:11:41.878Z,5.30
2019-03-09T11:12:41.899Z,2.90
2019-03-09T11:13:51.159Z,2.90
2019-03-09T11:14:41.933Z,3.70
2019-03-09T11:15:41.954Z,4.50
2019-03-09T11:16:41.971Z,3.60
2019-03-09T11:17:41.992Z,4.70
2019-03-09T11:18:42.012Z,6.70
2019-03-09T11:19:42.026Z,7.40
2019-03-09T11:20:42.046Z,2.40
2019-03-09T11:21:42.065Z,5.50
2019-03-09T11:22:42.082Z,6.90
2019-03-09T11:23:42.182Z,4.10
2019-03-09T11:24:42.121Z,6.10
2019-03-09T11:25:42.138Z,5.20
2019-03-09T11:26:42.163Z,3.20
2019-03-09T11:27:42.180Z,3.80
2019-03-09T11:28:42.194Z,3.90
2019-03-09T11:29:42.213Z,3.00
2019-03-09T11:30:42.229Z,5.10
2019-03-09T11:31:42.249Z,3.90
2019-03-09T11:32:42.270Z,3.30
2019-03-09T11:33:42.302Z,4.90
2019-03-09T11:34:42.377Z,4.40
2019-03-09T11:35:42.377Z,3.10
2019-03-09T11:36:42.370Z,5.10
2019-03-09T11:37:42.434Z,5.20
2019-03-09T11:38:42.434Z,4.30
2019-03-09T11:39:42.440Z,5.30
2019-03-09T11:40:42.453Z,2.90
2019-03-09T11:41:42.436Z,2.80
2019-03-09T11:42:42.453Z,2.60
2019-03-09T11:43:42.478Z,2.70
2019-03-09T11:44:42.494Z,3.20
2019-03-09T11:45:42.511Z,6.30
2019-03-09T11:46:42.530Z,4.10
2019-03-09T11:47:42.546Z,3.10
2019-03-09T11:48:42.573Z,2.60
2019-03-09T11:49:42.589Z,3.10
2019-03-09T11:50:42.608Z,4.40
2019-03-09T11:51:42.626Z,6.70
2019-03-09T11:52:42.644Z,4.50
2019-03-09T11:53:42.671Z,5.00
2019-03-09T11:54:42.683Z,2.40
2019-03-09T11:55:42.702Z,5.30
2019-03-09T11:56:42.727Z,3.10
2019-03-09T11:57:42.742Z,5.10
2019-03-09T11:58:42.760Z,3.90
2019-03-09T11:59:42.787Z,3.90
2019-03-09T12:00:42.797Z,2.90
2019-03-09T12:01:42.819Z,4.20
2019-03-09T12:02:42.834Z,4.10
2019-03-09T12:03:42.853Z,2.70
2019-03-09T12:04:46.619Z,4.10
2019-03-09T12:05:42.892Z,3.60
2019-03-09T12:06:42.911Z,4.50
2019-03-09T12:07:42.933Z,5.80
2019-03-09T12:08:42.951Z,4.20
2019-03-09T12:09:42.971Z,3.30
2019-03-09T12:10:42.987Z,5.20
2019-03-09T12:11:43.007Z,4.80
2019-03-09T12:12:43.029Z,3.30
2019-03-09T12:13:43.047Z,4.80
2019-03-09T12:14:43.066Z,5.00
2019-03-09T12:15:43.085Z,5.80
2019-03-09T12:16:43.103Z,6.30
2019-03-09T12:17:43.125Z,5.10
2019-03-09T12:18:43.145Z,3.70
2019-03-09T12:19:43.168Z,4.40
2019-03-09T12:20:43.182Z,6.80
2019-03-09T12:21:43.202Z,6.70
2019-03-09T12:22:43.221Z,4.30
2019-03-09T12:23:43.240Z,4.50
2019-03-09T12:24:43.261Z,2.10
2019-03-09T12:25:43.282Z,4.70
2019-03-09T12:26:43.298Z,5.30
2019-03-09T12:27:43.324Z,5.40
2019-03-09T12:28:43.335Z,3.00
2019-03-09T12:29:43.359Z,3.70
2019-03-09T12:30:43.375Z,4.10
2019-03-09T12:31:43.398Z,5.40
2019-03-09T12:32:43.416Z,3.00
2019-03-09T12:33:43.437Z,4.00
2019-03-09T12:34:43.455Z,6.30
2019-03-09T12:35:44.212Z,6.10
2019-03-09T12:36:43.496Z,3.10
2019-03-09T12:37:43.517Z,6.00
2019-03-09T12:38:43.534Z,6.70
2019-03-09T12:39:43.557Z,6.60
2019-03-09T12:40:43.573Z,7.60
2019-03-09T12:41:43.593Z,5.30
2019-03-09T12:42:43.613Z,6.00
2019-03-09T12:43:43.632Z,4.60
2019-03-09T12:44:43.653Z,7.40
2019-03-09T12:45:43.673Z,6.40
2019-03-09T12:46:43.697Z,3.20
2019-03-09T12:47:43.762Z,6.00
2019-03-09T12:48:43.732Z,5.20
2019-03-09T12:49:43.750Z,3.90
2019-03-09T12:50:43.771Z,5.60
2019-03-09T12:51:43.793Z,5.40
2019-03-09T12:52:43.811Z,6.40
2019-03-09T12:53:43.830Z,6.20
2019-03-09T12:54:43.851Z,5.60
2019-03-09T12:55:43.870Z,4.30
2019-03-09T12:56:43.891Z,8.80
2019-03-09T12:57:43.910Z,4.80
2019-03-09T12:58:46.048Z,6.80
2019-03-09T12:59:43.949Z,6.90
2019-03-09T13:00:43.966Z,6.60
2019-03-09T13:01:43.987Z,5.20
2019-03-09T13:02:44.007Z,5.60
2019-03-09T13:03:44.023Z,4.50
2019-03-09T13:04:44.045Z,4.90
2019-03-09T13:05:46.545Z,4.80
2019-03-09T13:06:44.082Z,5.10
2019-03-09T13:07:44.103Z,6.60
2019-03-09T13:08:44.123Z,6.90
2019-03-09T13:09:44.142Z,5.90
2019-03-09T13:10:44.164Z,6.00
2019-03-09T13:11:44.259Z,3.70
2019-03-09T13:12:44.254Z,4.70
2019-03-09T13:13:44.259Z,7.80
2019-03-09T13:14:44.324Z,7.90
2019-03-09T13:15:44.309Z,5.70